Juda, Wisconsin
Current Conditions -  °F | °C
As of 9:55 PM on Tuesday 25 Nov 2014 (Local Time) from KEFT Reporting Station
Clear Clear  
Wind Chill:   Ceiling: Unl
Heat Index: 14°   Visibility: 10mi
Dew Point: 12°   Wind: 9mph
Humidity: 93%   Direction: 200°SSW
Pressure: 30.12"   Gusts: NA
Location:  42.59°N, 89.5°W
Report Text: KEFT 260355Z AUTO 20008KT 10SM CLR M10/M11 A3012 RMK AO2
Loading
Personal Weather Stations






























Interactive Weather Map New forecast layout! Learn more

10-Day Weather Forecast

Advertisements
Track Severe Weather on mobile